sensor_id;sensor_type;location;lat;lon;timestamp;pressure;altitude;pressure_sealevel;temperature;humidity
64551;BME280;74341;44.510;-123.270;2024-03-08T00:02:15;101542.19;;;10.31;63.94
64551;BME280;74341;44.510;-123.270;2024-03-08T00:04:42;101540.06;;;10.24;63.28
64551;BME280;74341;44.510;-123.270;2024-03-08T00:07:08;101537.31;;;10.24;64.20
64551;BME280;74341;44.510;-123.270;2024-03-08T00:09:34;101529.41;;;10.21;63.40
64551;BME280;74341;44.510;-123.270;2024-03-08T00:12:01;101526.38;;;10.24;64.24
64551;BME280;74341;44.510;-123.270;2024-03-08T00:14:27;101523.50;;;10.26;64.31
64551;BME280;74341;44.510;-123.270;2024-03-08T00:16:53;101528.22;;;10.34;64.90
64551;BME280;74341;44.510;-123.270;2024-03-08T00:19:20;101527.78;;;10.38;64.44
64551;BME280;74341;44.510;-123.270;2024-03-08T00:21:46;101534.78;;;10.41;63.79
64551;BME280;74341;44.510;-123.270;2024-03-08T00:24:12;101536.97;;;10.37;64.10
64551;BME280;74341;44.510;-123.270;2024-03-08T00:26:39;101547.53;;;10.32;63.29
64551;BME280;74341;44.510;-123.270;2024-03-08T00:29:09;101545.53;;;10.24;63.71
64551;BME280;74341;44.510;-123.270;2024-03-08T00:31:35;101542.72;;;10.16;62.53
64551;BME280;74341;44.510;-123.270;2024-03-08T00:34:01;101543.31;;;10.10;64.07
64551;BME280;74341;44.510;-123.270;2024-03-08T00:36:28;101545.22;;;10.00;64.32
64551;BME280;74341;44.510;-123.270;2024-03-08T00:39:02;101536.34;;;9.98;64.05
64551;BME280;74341;44.510;-123.270;2024-03-08T00:41:32;101533.19;;;9.93;63.67
64551;BME280;74341;44.510;-123.270;2024-03-08T00:43:58;101532.97;;;9.86;50.79
64551;BME280;74341;44.510;-123.270;2024-03-08T00:46:25;101531.63;;;9.90;62.94
64551;BME280;74341;44.510;-123.270;2024-03-08T00:48:51;101541.53;;;9.91;63.15
64551;BME280;74341;44.510;-123.270;2024-03-08T00:51:17;101538.09;;;9.89;62.21
64551;BME280;74341;44.510;-123.270;2024-03-08T00:53:44;101544.44;;;9.89;62.94
64551;BME280;74341;44.510;-123.270;2024-03-08T00:56:10;101539.72;;;9.82;62.67
64551;BME280;74341;44.510;-123.270;2024-03-08T00:58:36;101543.34;;;9.73;63.56
64551;BME280;74341;44.510;-123.270;2024-03-08T01:01:03;101547.56;;;9.67;62.23
64551;BME280;74341;44.510;-123.270;2024-03-08T01:03:31;101543.69;;;9.60;62.45
64551;BME280;74341;44.510;-123.270;2024-03-08T01:05:57;101541.56;;;9.54;62.47
64551;BME280;74341;44.510;-123.270;2024-03-08T01:08:27;101538.72;;;9.45;62.42
64551;BME280;74341;44.510;-123.270;2024-03-08T01:10:53;101530.84;;;9.32;51.70
64551;BME280;74341;44.510;-123.270;2024-03-08T01:13:19;101539.50;;;9.28;58.34
64551;BME280;74341;44.510;-123.270;2024-03-08T01:15:45;101536.19;;;9.24;61.37
64551;BME280;74341;44.510;-123.270;2024-03-08T01:18:12;101535.63;;;9.21;63.97
64551;BME280;74341;44.510;-123.270;2024-03-08T01:20:38;101533.94;;;9.10;63.36
64551;BME280;74341;44.510;-123.270;2024-03-08T01:23:05;101537.53;;;9.01;63.18
64551;BME280;74341;44.510;-123.270;2024-03-08T01:25:33;101540.28;;;8.91;61.00
64551;BME280;74341;44.510;-123.270;2024-03-08T01:27:59;101535.69;;;8.82;62.59
64551;BME280;74341;44.510;-123.270;2024-03-08T01:30:25;101542.72;;;8.74;62.15
64551;BME280;74341;44.510;-123.270;2024-03-08T01:32:52;101541.88;;;8.64;62.25
64551;BME280;74341;44.510;-123.270;2024-03-08T01:35:18;101548.31;;;8.53;62.28
64551;BME280;74341;44.510;-123.270;2024-03-08T01:37:45;101551.19;;;8.42;62.69
64551;BME280;74341;44.510;-123.270;2024-03-08T01:40:11;101553.25;;;8.29;62.69
64551;BME280;74341;44.510;-123.270;2024-03-08T01:42:39;101557.13;;;8.16;63.48
64551;BME280;74341;44.510;-123.270;2024-03-08T01:45:06;101558.66;;;7.99;63.92
64551;BME280;74341;44.510;-123.270;2024-03-08T01:47:33;101571.19;;;7.81;64.35
64551;BME280;74341;44.510;-123.270;2024-03-08T01:50:00;101575.44;;;7.64;65.22
64551;BME280;74341;44.510;-123.270;2024-03-08T01:52:32;101573.22;;;7.58;65.52
64551;BME280;74341;44.510;-123.270;2024-03-08T01:55:03;101575.22;;;7.56;65.77
64551;BME280;74341;44.510;-123.270;2024-03-08T01:57:32;101576.66;;;7.60;66.02
64551;BME280;74341;44.510;-123.270;2024-03-08T02:00:00;101576.81;;;7.58;63.97
64551;BME280;74341;44.510;-123.270;2024-03-08T02:02:32;101568.66;;;7.58;66.20
64551;BME280;74341;44.510;-123.270;2024-03-08T02:05:02;101576.09;;;7.56;66.71
64551;BME280;74341;44.510;-123.270;2024-03-08T02:07:29;101571.78;;;7.54;67.30
64551;BME280;74341;44.510;-123.270;2024-03-08T02:09:55;101565.16;;;7.47;66.90
64551;BME280;74341;44.510;-123.270;2024-03-08T02:12:21;101558.66;;;7.38;66.83
64551;BME280;74341;44.510;-123.270;2024-03-08T02:14:47;101554.63;;;7.32;67.22
64551;BME280;74341;44.510;-123.270;2024-03-08T02:17:14;101566.31;;;7.23;67.40
64551;BME280;74341;44.510;-123.270;2024-03-08T02:19:40;101565.25;;;7.14;67.41
64551;BME280;74341;44.510;-123.270;2024-03-08T02:22:06;101566.91;;;7.06;68.00
64551;BME280;74341;44.510;-123.270;2024-03-08T02:24:33;101560.41;;;6.97;68.30
64551;BME280;74341;44.510;-123.270;2024-03-08T02:26:59;101564.19;;;6.84;68.38
64551;BME280;74341;44.510;-123.270;2024-03-08T02:29:25;101564.63;;;6.69;68.32
64551;BME280;74341;44.510;-123.270;2024-03-08T02:31:52;101571.34;;;6.53;68.34
64551;BME280;74341;44.510;-123.270;2024-03-08T02:34:18;101568.81;;;6.40;68.66
64551;BME280;74341;44.510;-123.270;2024-03-08T02:36:44;101583.16;;;6.31;68.73
64551;BME280;74341;44.510;-123.270;2024-03-08T02:39:10;101579.34;;;6.22;68.96
64551;BME280;74341;44.510;-123.270;2024-03-08T02:41:37;101577.28;;;6.15;69.38
64551;BME280;74341;44.510;-123.270;2024-03-08T02:44:03;101574.19;;;6.08;69.08
64551;BME280;74341;44.510;-123.270;2024-03-08T02:46:30;101576.28;;;6.04;69.91
64551;BME280;74341;44.510;-123.270;2024-03-08T02:48:56;101579.72;;;5.95;70.48
64551;BME280;74341;44.510;-123.270;2024-03-08T02:51:22;101571.34;;;5.87;70.23
64551;BME280;74341;44.510;-123.270;2024-03-08T02:53:49;101572.31;;;5.75;70.50
64551;BME280;74341;44.510;-123.270;2024-03-08T02:56:17;101579.47;;;5.64;70.70
64551;BME280;74341;44.510;-123.270;2024-03-08T02:58:43;101578.34;;;5.56;71.27
64551;BME280;74341;44.510;-123.270;2024-03-08T03:01:15;101581.19;;;5.43;71.76
64551;BME280;74341;44.510;-123.270;2024-03-08T03:03:41;101579.22;;;5.33;71.92
64551;BME280;74341;44.510;-123.270;2024-03-08T03:06:08;101586.22;;;5.25;72.06
64551;BME280;74341;44.510;-123.270;2024-03-08T03:08:34;101579.91;;;5.13;72.28
64551;BME280;74341;44.510;-123.270;2024-03-08T03:11:01;101582.59;;;5.02;71.67
64551;BME280;74341;44.510;-123.270;2024-03-08T03:13:27;101580.59;;;4.92;71.97
64551;BME280;74341;44.510;-123.270;2024-03-08T03:15:55;101575.88;;;4.83;72.26
64551;BME280;74341;44.510;-123.270;2024-03-08T03:18:23;101574.50;;;4.78;72.52
64551;BME280;74341;44.510;-123.270;2024-03-08T03:20:51;101579.00;;;4.66;72.56
64551;BME280;74341;44.510;-123.270;2024-03-08T03:23:18;101581.66;;;4.54;73.05
64551;BME280;74341;44.510;-123.270;2024-03-08T03:25:46;101577.69;;;4.47;73.00
64551;BME280;74341;44.510;-123.270;2024-03-08T03:28:13;101584.44;;;4.42;73.56
64551;BME280;74341;44.510;-123.270;2024-03-08T03:30:47;101590.31;;;4.35;74.56
64551;BME280;74341;44.510;-123.270;2024-03-08T03:33:13;101596.28;;;4.28;75.54
64551;BME280;74341;44.510;-123.270;2024-03-08T03:35:42;101597.28;;;4.14;75.67
64551;BME280;74341;44.510;-123.270;2024-03-08T03:38:09;101600.03;;;4.01;76.16
64551;BME280;74341;44.510;-123.270;2024-03-08T03:40:39;101605.91;;;3.95;76.33
64551;BME280;74341;44.510;-123.270;2024-03-08T03:43:07;101590.84;;;3.91;76.34
64551;BME280;74341;44.510;-123.270;2024-03-08T03:45:35;101602.88;;;3.87;76.18
64551;BME280;74341;44.510;-123.270;2024-03-08T03:48:06;101617.72;;;3.81;76.18
64551;BME280;74341;44.510;-123.270;2024-03-08T03:50:35;101614.69;;;3.73;76.23
64551;BME280;74341;44.510;-123.270;2024-03-08T03:53:01;101616.22;;;3.64;76.18
64551;BME280;74341;44.510;-123.270;2024-03-08T03:55:35;101624.66;;;3.59;77.22
64551;BME280;74341;44.510;-123.270;2024-03-08T03:58:04;101615.81;;;3.57;77.55
64551;BME280;74341;44.510;-123.270;2024-03-08T04:00:30;101613.19;;;3.56;77.21
64551;BME280;74341;44.510;-123.270;2024-03-08T04:02:57;101620.66;;;3.52;77.52
64551;BME280;74341;44.510;-123.270;2024-03-08T04:05:26;101622.63;;;3.50;77.69
64551;BME280;74341;44.510;-123.270;2024-03-08T04:07:52;101631.91;;;3.46;77.72
64551;BME280;74341;44.510;-123.270;2024-03-08T04:10:18;101630.38;;;3.42;77.90
64551;BME280;74341;44.510;-123.270;2024-03-08T04:12:45;101630.59;;;3.39;78.52
64551;BME280;74341;44.510;-123.270;2024-03-08T04:15:12;101630.84;;;3.36;78.37
64551;BME280;74341;44.510;-123.270;2024-03-08T04:17:38;101632.88;;;3.32;79.18
64551;BME280;74341;44.510;-123.270;2024-03-08T04:20:05;101636.75;;;3.28;79.48
64551;BME280;74341;44.510;-123.270;2024-03-08T04:22:36;101632.53;;;3.24;79.93
64551;BME280;74341;44.510;-123.270;2024-03-08T04:25:03;101642.13;;;3.15;79.63
64551;BME280;74341;44.510;-123.270;2024-03-08T04:27:29;101643.44;;;3.10;80.87
64551;BME280;74341;44.510;-123.270;2024-03-08T04:29:56;101646.44;;;3.05;80.65
64551;BME280;74341;44.510;-123.270;2024-03-08T04:32:22;101650.22;;;3.02;80.70
64551;BME280;74341;44.510;-123.270;2024-03-08T04:34:49;101640.72;;;2.97;80.80
64551;BME280;74341;44.510;-123.270;2024-03-08T04:37:15;101646.31;;;2.94;81.58
64551;BME280;74341;44.510;-123.270;2024-03-08T04:39:44;101639.41;;;2.90;81.23
64551;BME280;74341;44.510;-123.270;2024-03-08T04:42:10;101644.25;;;2.84;81.93
64551;BME280;74341;44.510;-123.270;2024-03-08T04:44:37;101652.53;;;2.81;81.89
64551;BME280;74341;44.510;-123.270;2024-03-08T04:47:04;101657.38;;;2.76;82.01
64551;BME280;74341;44.510;-123.270;2024-03-08T04:49:32;101659.50;;;2.71;81.78
64551;BME280;74341;44.510;-123.270;2024-03-08T04:52:03;101666.09;;;2.67;81.94
64551;BME280;74341;44.510;-123.270;2024-03-08T04:54:30;101668.13;;;2.63;82.50
64551;BME280;74341;44.510;-123.270;2024-03-08T04:56:57;101665.72;;;2.59;82.46
64551;BME280;74341;44.510;-123.270;2024-03-08T04:59:26;101666.03;;;2.54;82.56
64551;BME280;74341;44.510;-123.270;2024-03-08T05:01:53;101660.94;;;2.50;82.46
64551;BME280;74341;44.510;-123.270;2024-03-08T05:04:19;101662.22;;;2.44;82.81
64551;BME280;74341;44.510;-123.270;2024-03-08T05:06:45;101668.88;;;2.38;83.30
64551;BME280;74341;44.510;-123.270;2024-03-08T05:09:11;101664.72;;;2.33;82.76
64551;BME280;74341;44.510;-123.270;2024-03-08T05:11:45;101670.44;;;2.28;82.87
64551;BME280;74341;44.510;-123.270;2024-03-08T05:14:13;101662.63;;;2.23;83.71
64551;BME280;74341;44.510;-123.270;2024-03-08T05:16:45;101659.34;;;2.18;83.89
64551;BME280;74341;44.510;-123.270;2024-03-08T05:19:19;101667.66;;;2.15;83.87
64551;BME280;74341;44.510;-123.270;2024-03-08T05:21:46;101659.84;;;2.11;84.22
64551;BME280;74341;44.510;-123.270;2024-03-08T05:24:13;101662.75;;;2.07;84.68
64551;BME280;74341;44.510;-123.270;2024-03-08T05:26:41;101657.75;;;2.01;85.08
64551;BME280;74341;44.510;-123.270;2024-03-08T05:29:08;101655.34;;;1.97;84.60
64551;BME280;74341;44.510;-123.270;2024-03-08T05:31:55;101660.25;;;1.90;85.61
64551;BME280;74341;44.510;-123.270;2024-03-08T05:34:23;101657.94;;;1.84;88.79
64551;BME280;74341;44.510;-123.270;2024-03-08T05:36:50;101666.22;;;1.81;85.40
64551;BME280;74341;44.510;-123.270;2024-03-08T05:39:17;101669.31;;;1.75;84.74
64551;BME280;74341;44.510;-123.270;2024-03-08T05:41:43;101671.44;;;1.69;87.86
64551;BME280;74341;44.510;-123.270;2024-03-08T05:44:10;101656.69;;;1.61;84.44
64551;BME280;74341;44.510;-123.270;2024-03-08T05:46:37;101665.16;;;1.55;84.00
64551;BME280;74341;44.510;-123.270;2024-03-08T05:49:04;101662.75;;;1.50;84.73
64551;BME280;74341;44.510;-123.270;2024-03-08T05:51:36;101656.75;;;1.45;85.49
64551;BME280;74341;44.510;-123.270;2024-03-08T05:54:08;101663.31;;;1.41;85.50
64551;BME280;74341;44.510;-123.270;2024-03-08T05:56:38;101666.28;;;1.36;86.31
64551;BME280;74341;44.510;-123.270;2024-03-08T05:59:09;101663.88;;;1.31;86.02
64551;BME280;74341;44.510;-123.270;2024-03-08T06:01:35;101670.56;;;1.24;85.10
64551;BME280;74341;44.510;-123.270;2024-03-08T06:04:06;101674.59;;;1.17;84.66
64551;BME280;74341;44.510;-123.270;2024-03-08T06:06:33;101675.81;;;1.11;84.72
64551;BME280;74341;44.510;-123.270;2024-03-08T06:08:59;101667.06;;;1.08;85.63
64551;BME280;74341;44.510;-123.270;2024-03-08T06:11:26;101671.69;;;1.06;85.87
64551;BME280;74341;44.510;-123.270;2024-03-08T06:13:57;101660.91;;;1.06;86.83
64551;BME280;74341;44.510;-123.270;2024-03-08T06:16:26;101667.34;;;1.03;86.22
64551;BME280;74341;44.510;-123.270;2024-03-08T06:18:58;101655.78;;;1.01;86.18
64551;BME280;74341;44.510;-123.270;2024-03-08T06:21:24;101647.81;;;1.00;87.04
64551;BME280;74341;44.510;-123.270;2024-03-08T06:23:54;101646.16;;;0.97;87.13
64551;BME280;74341;44.510;-123.270;2024-03-08T06:26:32;101641.75;;;0.96;86.37
64551;BME280;74341;44.510;-123.270;2024-03-08T06:28:58;101634.72;;;0.93;87.05
64551;BME280;74341;44.510;-123.270;2024-03-08T06:31:24;101635.00;;;0.89;86.76
64551;BME280;74341;44.510;-123.270;2024-03-08T06:33:51;101637.94;;;0.84;86.68
64551;BME280;74341;44.510;-123.270;2024-03-08T06:36:20;101645.50;;;0.78;86.86
64551;BME280;74341;44.510;-123.270;2024-03-08T06:38:48;101648.50;;;0.73;87.49
64551;BME280;74341;44.510;-123.270;2024-03-08T06:41:14;101643.28;;;0.70;87.84
64551;BME280;74341;44.510;-123.270;2024-03-08T06:43:45;101647.00;;;0.67;88.05
64551;BME280;74341;44.510;-123.270;2024-03-08T06:46:12;101644.50;;;0.64;88.02
64551;BME280;74341;44.510;-123.270;2024-03-08T06:48:40;101650.06;;;0.61;87.70
64551;BME280;74341;44.510;-123.270;2024-03-08T06:51:07;101650.22;;;0.58;88.00
64551;BME280;74341;44.510;-123.270;2024-03-08T06:53:33;101659.38;;;0.55;88.69
64551;BME280;74341;44.510;-123.270;2024-03-08T06:56:04;101651.53;;;0.51;87.74
64551;BME280;74341;44.510;-123.270;2024-03-08T06:58:30;101659.78;;;0.48;88.74
64551;BME280;74341;44.510;-123.270;2024-03-08T07:00:57;101656.41;;;0.44;89.10
64551;BME280;74341;44.510;-123.270;2024-03-08T07:03:26;101663.69;;;0.42;89.60
64551;BME280;74341;44.510;-123.270;2024-03-08T07:05:56;101674.47;;;0.42;90.41
64551;BME280;74341;44.510;-123.270;2024-03-08T07:08:24;101677.22;;;0.41;90.23
64551;BME280;74341;44.510;-123.270;2024-03-08T07:10:53;101668.31;;;0.40;89.51
64551;BME280;74341;44.510;-123.270;2024-03-08T07:13:19;101672.81;;;0.40;89.24
64551;BME280;74341;44.510;-123.270;2024-03-08T07:15:46;101670.31;;;0.36;88.46
64551;BME280;74341;44.510;-123.270;2024-03-08T07:18:12;101683.91;;;0.33;88.43
64551;BME280;74341;44.510;-123.270;2024-03-08T07:20:41;101684.28;;;0.27;89.74
64551;BME280;74341;44.510;-123.270;2024-03-08T07:23:09;101683.75;;;0.21;89.67
64551;BME280;74341;44.510;-123.270;2024-03-08T07:25:36;101686.59;;;0.17;90.01
64551;BME280;74341;44.510;-123.270;2024-03-08T07:28:04;101682.25;;;0.15;90.60
64551;BME280;74341;44.510;-123.270;2024-03-08T07:30:31;101687.72;;;0.13;94.31
64551;BME280;74341;44.510;-123.270;2024-03-08T07:33:10;101693.19;;;0.12;90.77
64551;BME280;74341;44.510;-123.270;2024-03-08T07:35:40;101687.03;;;0.10;90.49
64551;BME280;74341;44.510;-123.270;2024-03-08T07:38:09;101681.72;;;0.08;89.31
64551;BME280;74341;44.510;-123.270;2024-03-08T07:40:38;101695.19;;;0.08;90.05
64551;BME280;74341;44.510;-123.270;2024-03-08T07:43:07;101696.22;;;0.06;89.59
64551;BME280;74341;44.510;-123.270;2024-03-08T07:45:34;101699.06;;;0.03;89.45
64551;BME280;74341;44.510;-123.270;2024-03-08T07:48:01;101698.44;;;-0.03;92.82
64551;BME280;74341;44.510;-123.270;2024-03-08T07:50:28;101697.13;;;-0.11;89.87
64551;BME280;74341;44.510;-123.270;2024-03-08T07:52:55;101702.94;;;-0.19;88.76
64551;BME280;74341;44.510;-123.270;2024-03-08T07:55:21;101694.25;;;-0.24;89.29
64551;BME280;74341;44.510;-123.270;2024-03-08T07:57:50;101710.53;;;-0.27;89.43
64551;BME280;74341;44.510;-123.270;2024-03-08T08:00:17;101696.47;;;-0.32;88.88
64551;BME280;74341;44.510;-123.270;2024-03-08T08:02:44;101701.13;;;-0.36;87.86
64551;BME280;74341;44.510;-123.270;2024-03-08T08:05:15;101710.38;;;-0.42;88.33
64551;BME280;74341;44.510;-123.270;2024-03-08T08:07:47;101719.56;;;-0.46;88.97
64551;BME280;74341;44.510;-123.270;2024-03-08T08:10:13;101722.34;;;-0.47;89.80
64551;BME280;74341;44.510;-123.270;2024-03-08T08:12:44;101725.09;;;-0.49;90.48
64551;BME280;74341;44.510;-123.270;2024-03-08T08:15:12;101724.38;;;-0.52;90.70
64551;BME280;74341;44.510;-123.270;2024-03-08T08:17:38;101727.16;;;-0.54;90.36
64551;BME280;74341;44.510;-123.270;2024-03-08T08:20:06;101724.63;;;-0.57;90.19
64551;BME280;74341;44.510;-123.270;2024-03-08T08:22:32;101720.22;;;-0.58;90.70
64551;BME280;74341;44.510;-123.270;2024-03-08T08:24:59;101713.16;;;-0.61;90.69
64551;BME280;74341;44.510;-123.270;2024-03-08T08:27:25;101701.72;;;-0.64;91.10
64551;BME280;74341;44.510;-123.270;2024-03-08T08:29:52;101702.75;;;-0.67;90.42
64551;BME280;74341;44.510;-123.270;2024-03-08T08:32:18;101692.94;;;-0.68;90.40
64551;BME280;74341;44.510;-123.270;2024-03-08T08:34:44;101695.63;;;-0.68;91.28
64551;BME280;74341;44.510;-123.270;2024-03-08T08:37:10;101692.16;;;-0.70;90.44
64551;BME280;74341;44.510;-123.270;2024-03-08T08:39:36;101696.03;;;-0.75;87.12
64551;BME280;74341;44.510;-123.270;2024-03-08T08:42:04;101700.75;;;-0.81;87.56
64551;BME280;74341;44.510;-123.270;2024-03-08T08:44:30;101701.03;;;-0.85;89.63
64551;BME280;74341;44.510;-123.270;2024-03-08T08:46:57;101704.78;;;-0.89;89.62
64551;BME280;74341;44.510;-123.270;2024-03-08T08:49:24;101708.59;;;-0.93;90.57
64551;BME280;74341;44.510;-123.270;2024-03-08T08:51:51;101696.09;;;-0.94;96.31
64551;BME280;74341;44.510;-123.270;2024-03-08T08:54:18;101701.47;;;-0.94;94.66
64551;BME280;74341;44.510;-123.270;2024-03-08T08:56:44;101700.69;;;-0.97;93.12
64551;BME280;74341;44.510;-123.270;2024-03-08T08:59:11;101706.03;;;-0.97;91.07
64551;BME280;74341;44.510;-123.270;2024-03-08T09:01:40;101702.50;;;-0.97;90.99
64551;BME280;74341;44.510;-123.270;2024-03-08T09:04:06;101706.13;;;-0.98;89.79
64551;BME280;74341;44.510;-123.270;2024-03-08T09:06:33;101707.16;;;-1.01;91.19
64551;BME280;74341;44.510;-123.270;2024-03-08T09:08:59;101711.88;;;-1.06;90.62
64551;BME280;74341;44.510;-123.270;2024-03-08T09:11:25;101720.00;;;-1.07;90.60
64551;BME280;74341;44.510;-123.270;2024-03-08T09:13:52;101718.34;;;-1.10;90.30
64551;BME280;74341;44.510;-123.270;2024-03-08T09:16:18;101730.03;;;-1.11;90.29
64551;BME280;74341;44.510;-123.270;2024-03-08T09:18:45;101723.94;;;-1.15;90.28
64551;BME280;74341;44.510;-123.270;2024-03-08T09:21:11;101725.84;;;-1.17;91.44
64551;BME280;74341;44.510;-123.270;2024-03-08T09:23:38;101727.72;;;-1.19;95.35
64551;BME280;74341;44.510;-123.270;2024-03-08T09:26:06;101723.31;;;-1.20;91.99
64551;BME280;74341;44.510;-123.270;2024-03-08T09:28:35;101720.63;;;-1.20;90.67
64551;BME280;74341;44.510;-123.270;2024-03-08T09:31:01;101722.44;;;-1.20;91.38
64551;BME280;74341;44.510;-123.270;2024-03-08T09:33:27;101725.19;;;-1.22;91.97
64551;BME280;74341;44.510;-123.270;2024-03-08T09:35:54;101720.84;;;-1.24;92.48
64551;BME280;74341;44.510;-123.270;2024-03-08T09:38:23;101729.97;;;-1.28;92.25
64551;BME280;74341;44.510;-123.270;2024-03-08T09:40:51;101727.47;;;-1.31;90.58
64551;BME280;74341;44.510;-123.270;2024-03-08T09:43:19;101715.91;;;-1.34;90.53
64551;BME280;74341;44.510;-123.270;2024-03-08T09:45:46;101721.47;;;-1.37;87.48
64551;BME280;74341;44.510;-123.270;2024-03-08T09:48:16;101723.63;;;-1.45;89.80
64551;BME280;74341;44.510;-123.270;2024-03-08T09:50:45;101722.13;;;-1.50;91.13
64551;BME280;74341;44.510;-123.270;2024-03-08T09:53:11;101717.75;;;-1.53;90.71
64551;BME280;74341;44.510;-123.270;2024-03-08T09:55:38;101718.72;;;-1.54;91.31
64551;BME280;74341;44.510;-123.270;2024-03-08T09:58:15;101708.06;;;-1.56;90.58
64551;BME280;74341;44.510;-123.270;2024-03-08T10:00:54;101711.66;;;-1.57;91.65
64551;BME280;74341;44.510;-123.270;2024-03-08T10:03:23;101712.69;;;-1.59;90.91
64551;BME280;74341;44.510;-123.270;2024-03-08T10:05:53;101716.31;;;-1.60;91.58
64551;BME280;74341;44.510;-123.270;2024-03-08T10:08:28;101713.78;;;-1.63;91.66
64551;BME280;74341;44.510;-123.270;2024-03-08T10:10:56;101712.13;;;-1.66;92.24
64551;BME280;74341;44.510;-123.270;2024-03-08T10:13:26;101717.59;;;-1.69;93.07
64551;BME280;74341;44.510;-123.270;2024-03-08T10:15:55;101712.34;;;-1.70;94.47
64551;BME280;74341;44.510;-123.270;2024-03-08T10:18:22;101713.28;;;-1.72;94.21
64551;BME280;74341;44.510;-123.270;2024-03-08T10:21:11;101711.53;;;-1.73;94.83
64551;BME280;74341;44.510;-123.270;2024-03-08T10:23:37;101707.19;;;-1.75;93.48
64551;BME280;74341;44.510;-123.270;2024-03-08T10:26:16;101702.75;;;-1.76;93.42
64551;BME280;74341;44.510;-123.270;2024-03-08T10:28:48;101712.63;;;-1.77;92.93
64551;BME280;74341;44.510;-123.270;2024-03-08T10:31:15;101701.03;;;-1.77;93.44
64551;BME280;74341;44.510;-123.270;2024-03-08T10:33:42;101696.75;;;-1.81;93.27
64551;BME280;74341;44.510;-123.270;2024-03-08T10:36:09;101700.44;;;-1.84;93.35
64551;BME280;74341;44.510;-123.270;2024-03-08T10:38:39;101698.69;;;-1.85;92.05
64551;BME280;74341;44.510;-123.270;2024-03-08T10:41:13;101691.69;;;-1.87;92.65
64551;BME280;74341;44.510;-123.270;2024-03-08T10:47:00;101695.47;;;-1.92;94.36
64551;BME280;74341;44.510;-123.270;2024-03-08T10:49:37;101686.47;;;-1.91;96.33
64551;BME280;74341;44.510;-123.270;2024-03-08T10:52:04;101689.19;;;-1.92;99.98
64551;BME280;74341;44.510;-123.270;2024-03-08T10:54:35;101691.09;;;-1.94;97.16
64551;BME280;74341;44.510;-123.270;2024-03-08T10:57:05;101694.72;;;-1.95;95.00
64551;BME280;74341;44.510;-123.270;2024-03-08T10:59:34;101683.22;;;-1.97;94.78
64551;BME280;74341;44.510;-123.270;2024-03-08T11:02:01;101690.44;;;-1.99;95.44
64551;BME280;74341;44.510;-123.270;2024-03-08T11:04:27;101692.31;;;-2.01;96.63
64551;BME280;74341;44.510;-123.270;2024-03-08T11:07:01;101690.66;;;-2.04;97.22
64551;BME280;74341;44.510;-123.270;2024-03-08T11:09:36;101686.16;;;-2.03;96.40
64551;BME280;74341;44.510;-123.270;2024-03-08T11:12:23;101687.09;;;-2.04;94.70
64551;BME280;74341;44.510;-123.270;2024-03-08T11:14:52;101687.25;;;-2.07;95.33
64551;BME280;74341;44.510;-123.270;2024-03-08T11:19:58;101677.25;;;-2.04;94.83
64551;BME280;74341;44.510;-123.270;2024-03-08T11:22:32;101680.88;;;-2.05;95.61
64551;BME280;74341;44.510;-123.270;2024-03-08T11:25:02;101688.13;;;-2.07;96.92
64551;BME280;74341;44.510;-123.270;2024-03-08T11:27:34;101685.38;;;-2.05;96.76
64551;BME280;74341;44.510;-123.270;2024-03-08T11:30:07;101679.94;;;-2.04;96.03
64551;BME280;74341;44.510;-123.270;2024-03-08T11:32:45;101677.19;;;-2.02;95.40
64551;BME280;74341;44.510;-123.270;2024-03-08T11:35:22;101678.06;;;-2.02;95.23
64551;BME280;74341;44.510;-123.270;2024-03-08T11:37:51;101673.44;;;-1.98;95.81
64551;BME280;74341;44.510;-123.270;2024-03-08T11:40:17;101675.19;;;-1.97;94.92
64551;BME280;74341;44.510;-123.270;2024-03-08T11:42:46;101672.56;;;-1.99;93.75
64551;BME280;74341;44.510;-123.270;2024-03-08T11:45:18;101667.28;;;-2.00;90.37
64551;BME280;74341;44.510;-123.270;2024-03-08T11:47:47;101669.06;;;-2.01;92.32
64551;BME280;74341;44.510;-123.270;2024-03-08T11:50:14;101673.63;;;-2.03;93.53
64551;BME280;74341;44.510;-123.270;2024-03-08T11:52:41;101681.72;;;-2.04;93.08
64551;BME280;74341;44.510;-123.270;2024-03-08T11:55:08;101676.31;;;-2.03;94.09
64551;BME280;74341;44.510;-123.270;2024-03-08T11:57:36;101679.88;;;-2.02;94.85
64551;BME280;74341;44.510;-123.270;2024-03-08T12:00:02;101673.56;;;-2.01;97.65
64551;BME280;74341;44.510;-123.270;2024-03-08T12:02:34;101670.81;;;-2.00;95.88
64551;BME280;74341;44.510;-123.270;2024-03-08T12:05:06;101673.44;;;-1.98;94.11
64551;BME280;74341;44.510;-123.270;2024-03-08T12:07:35;101672.50;;;-1.97;93.01
64551;BME280;74341;44.510;-123.270;2024-03-08T12:12:48;101651.91;;;-1.97;94.34
64551;BME280;74341;44.510;-123.270;2024-03-08T12:15:16;101659.16;;;-1.99;94.52
64551;BME280;74341;44.510;-123.270;2024-03-08T12:17:44;101664.66;;;-2.02;94.17
64551;BME280;74341;44.510;-123.270;2024-03-08T12:20:17;101678.13;;;-2.03;94.90
64551;BME280;74341;44.510;-123.270;2024-03-08T12:22:44;101667.41;;;-2.03;94.33
64551;BME280;74341;44.510;-123.270;2024-03-08T12:25:11;101663.78;;;-2.02;93.96
64551;BME280;74341;44.510;-123.270;2024-03-08T12:27:42;101654.72;;;-2.00;94.74
64551;BME280;74341;44.510;-123.270;2024-03-08T12:30:27;101656.56;;;-2.00;94.51
64551;BME280;74341;44.510;-123.270;2024-03-08T12:33:00;101653.94;;;-2.02;94.48
64551;BME280;74341;44.510;-123.270;2024-03-08T12:35:28;101661.25;;;-2.05;93.97
64551;BME280;74341;44.510;-123.270;2024-03-08T12:37:58;101658.72;;;-2.08;94.87
64551;BME280;74341;44.510;-123.270;2024-03-08T12:40:29;101651.53;;;-2.08;94.02